Ana Sayfa
METAR-TAF:

METAR-TAF

Havaalanları :

Bleibler Ranch Aerodrome

Clinton, İngiliz Kolombiyası, Kanada

Enlem: 51-15-59N, Boylam: 121-41-05W, yükseklik: 1126 m

Güncel hava durumu gözlemi

Rapor saat 00:00 UTC de 1 saat ve 8 dakika önce yapıldı.
Sakin rüzgar
Sıcaklık -6°C
Nem 93%
Basınç 1013 hPa
Görüş mesafesi: 14.5 km
11000 ft yükseklikte parçalı bulutlu
18000 ft yükseklikte parçalı çok bulutlu

METAR: CYIN 110000Z AUTO 00000KT 9SM SCT110 BKN180 M06/M07 A2990 RMK SLP183

Saat: 17:08 (01:08 UTC)


TAF: eksik

4.000'den fazla havaalanı için hava durumu gözlemleri ve tahminleri (METAR ve TAF raporları).

Kullanılabilir istasyonlar harita üzerinde sarı ve kırmızı noktalarla gösterilir.

İstasyonun adını görmek için fareyi noktanın üzerinde gezdirin.

Sonrasında hava gözlem ve tahminlerini görmek için tıklayın.

Haritayı değiştirmek için: yaklaştırmak için siyah artı işaretli yeşil düğmeye ve uzaklaştırmak için de eksi işaretli düğmeye hızla tıklayın; bitişik haritalar için yeşil okları kullanın.


METAR-TAF: